Time;durP1;ratioP1;P1;durP2;ratioP2;P2;SDS_P1;SDS_P2;PMS_P1;PMS_P2;Temp;Humidity;BMP_temperature;BMP_pressure;BME280_temperature;BME280_humidity;BME280_pressure;Samples;Min_cycle;Max_cycle;Signal;HPM_P1;HPM_P2
2022/09/30 00:00:40;;;;;;;1.17;1.13;;;;;;;13.01;77.46;93142.41;5090442;28;20032;-34
2022/09/30 00:03:05;;;;;;;1.65;1.10;;;;;;;12.83;79.03;93138.19;5090185;28;20501;-34
2022/09/30 00:05:31;;;;;;;1.55;1.45;;;;;;;12.92;79.70;93132.00;5090404;28;20027;-34
2022/09/30 00:07:56;;;;;;;0.88;0.88;;;;;;;12.84;79.78;93123.75;5090276;28;20629;-34
2022/09/30 00:10:22;;;;;;;0.45;0.45;;;;;;;12.85;78.76;93141.13;5090346;28;20032;-34
2022/09/30 00:12:47;;;;;;;1.02;1.02;;;;;;;13.02;77.26;93140.38;5090035;28;20499;-34
2022/09/30 00:15:13;;;;;;;0.55;0.55;;;;;;;12.89;77.52;93142.19;5090386;28;20028;-34
2022/09/30 00:17:38;;;;;;;0.73;0.73;;;;;;;12.89;77.24;93155.28;5089981;28;20530;-34
2022/09/30 00:20:04;;;;;;;1.55;1.17;;;;;;;12.94;77.19;93143.97;5090234;28;20031;-34
2022/09/30 00:24:03;;;;;;;1.10;1.10;;;;;;;12.84;77.73;93147.97;4971046;27;4074047;-34
2022/09/30 00:26:28;;;;;;;0.52;0.52;;;;;;;12.84;78.46;93154.22;5087751;28;20473;-34
2022/09/30 00:28:56;;;;;;;1.35;0.68;;;;;;;12.75;79.54;93162.47;5087686;28;20024;-34
2022/09/30 00:31:23;;;;;;;0.80;0.80;;;;;;;12.73;80.04;93170.63;5088042;28;20020;-34
2022/09/30 00:34:07;;;;;;;0.50;0.50;;;;;;;12.82;79.84;93158.91;5087974;28;20415;-34
2022/09/30 00:36:44;;;;;;;0.80;0.80;;;;;;;12.76;79.07;93161.16;5087671;28;20085;-34
2022/09/30 00:39:15;;;;;;;0.60;0.55;;;;;;;12.53;80.31;93164.16;5087918;28;20024;-34
2022/09/30 00:41:40;;;;;;;0.30;0.30;;;;;;;12.44;80.79;93150.22;5087487;28;20016;-34
2022/09/30 00:44:45;;;;;;;0.63;0.63;;;;;;;12.27;80.77;93155.72;5087473;28;20031;-34
2022/09/30 00:47:36;;;;;;;0.55;0.40;;;;;;;12.30;80.16;93155.31;5046457;28;20043;-34
2022/09/30 00:50:11;;;;;;;0.63;0.63;;;;;;;12.14;80.99;93165.81;5049251;28;20511;-34
2022/09/30 00:52:36;;;;;;;0.98;0.98;;;;;;;12.18;81.46;93157.09;5087352;28;20515;-34
2022/09/30 00:55:17;;;;;;;1.92;1.42;;;;;;;12.15;81.93;93164.50;5087353;28;20028;-34
2022/09/30 00:57:42;;;;;;;1.10;1.10;;;;;;;12.16;82.44;93160.44;5087899;28;20099;-34
2022/09/30 01:00:08;;;;;;;1.27;1.27;;;;;;;12.10;83.26;93164.72;5087379;28;20484;-34
2022/09/30 01:02:33;;;;;;;0.90;0.90;;;;;;;12.19;82.50;93150.97;5087054;28;20036;-34
2022/09/30 01:04:59;;;;;;;0.63;0.63;;;;;;;12.20;82.45;93151.72;5087373;28;20043;-34
2022/09/30 01:07:24;;;;;;;2.22;1.15;;;;;;;12.21;80.96;93153.19;5087369;28;20462;-34
2022/09/30 01:09:51;;;;;;;0.38;0.38;;;;;;;12.26;80.72;93148.75;5087379;28;20024;-34
2022/09/30 01:12:19;;;;;;;0.50;0.50;;;;;;;12.15;80.22;93139.59;5086956;28;20046;-34
2022/09/30 01:14:46;;;;;;;0.50;0.50;;;;;;;12.09;79.60;93141.84;5086983;28;20524;-34
2022/09/30 01:17:36;;;;;;;0.20;0.20;;;;;;;12.09;78.97;93146.66;5086004;28;20434;-34
2022/09/30 01:20:25;;;;;;;0.75;0.75;;;;;;;12.09;78.45;93152.19;5086829;28;20020;-34
2022/09/30 01:23:12;;;;;;;0.73;0.60;;;;;;;12.05;78.54;93141.53;5085599;28;20045;-34
2022/09/30 01:25:38;;;;;;;0.70;0.57;;;;;;;11.99;78.96;93148.59;5086426;28;20016;-34
2022/09/30 01:28:34;;;;;;;3.95;2.38;;;;;;;11.94;79.01;93157.84;5086625;28;20024;-34
2022/09/30 01:30:59;;;;;;;1.27;0.80;;;;;;;11.90;79.44;93154.72;5086555;28;20488;-34
2022/09/30 01:34:03;;;;;;;1.25;1.25;;;;;;;11.99;78.88;93152.09;5084182;28;20097;-34
2022/09/30 01:36:43;;;;;;;0.52;0.52;;;;;;;12.05;78.91;93162.91;5073004;28;20028;-34
2022/09/30 01:39:32;;;;;;;1.17;1.17;;;;;;;11.97;79.21;93156.72;5073044;28;20077;-34
2022/09/30 01:42:07;;;;;;;0.60;0.60;;;;;;;11.96;79.54;93149.69;5072031;28;20024;-34
2022/09/30 01:44:53;;;;;;;0.85;0.85;;;;;;;11.80;80.18;93146.31;5073219;28;20051;-34
2022/09/30 01:47:26;;;;;;;1.42;1.13;;;;;;;11.81;80.11;93133.97;5073150;28;20078;-34
2022/09/30 01:50:11;;;;;;;0.40;0.40;;;;;;;11.79;80.98;93136.56;5071663;28;20569;-34
2022/09/30 01:52:44;;;;;;;0.60;0.60;;;;;;;11.77;81.38;93141.91;5071938;28;20016;-34
2022/09/30 01:55:31;;;;;;;1.88;1.58;;;;;;;11.67;81.61;93138.31;5072777;28;20035;-34
2022/09/30 01:58:03;;;;;;;2.20;1.70;;;;;;;11.78;81.44;93134.38;5073024;28;20466;-34
2022/09/30 02:00:37;;;;;;;2.45;0.88;;;;;;;11.75;80.63;93138.25;5072589;28;20021;-34
2022/09/30 02:03:15;;;;;;;1.65;1.52;;;;;;;11.79;80.54;93139.31;5073141;28;20433;-34
2022/09/30 02:06:01;;;;;;;1.38;1.38;;;;;;;11.66;80.61;93139.56;5071383;28;20021;-34
2022/09/30 02:08:59;;;;;;;1.45;1.35;;;;;;;11.55;80.85;93145.53;5071319;28;20032;-34
2022/09/30 02:11:27;;;;;;;3.10;1.37;;;;;;;11.51;81.27;93139.66;5071241;28;20055;-34
2022/09/30 02:14:05;;;;;;;2.07;1.97;;;;;;;11.57;80.94;93148.47;5072439;28;20028;-34
2022/09/30 02:16:41;;;;;;;0.77;0.77;;;;;;;11.58;80.64;93151.97;5072439;28;20048;-34
2022/09/30 02:19:19;;;;;;;0.77;0.77;;;;;;;11.63;80.96;93145.50;5071179;28;20533;-34
2022/09/30 02:21:48;;;;;;;1.08;1.08;;;;;;;11.66;80.20;93158.94;5072403;28;20090;-34
2022/09/30 02:24:16;;;;;;;2.95;2.55;;;;;;;11.76;79.85;93159.78;5070804;28;20053;-34
2022/09/30 02:26:43;;;;;;;1.02;1.02;;;;;;;11.83;79.06;93155.50;5071674;28;20016;-34
2022/09/30 02:29:22;;;;;;;0.82;0.82;;;;;;;11.72;79.26;93162.22;5072230;28;20568;-34
2022/09/30 02:31:51;;;;;;;1.50;1.40;;;;;;;11.72;79.58;93162.22;5071122;28;20020;-34
2022/09/30 02:34:24;;;;;;;0.93;0.65;;;;;;;11.77;80.51;93169.56;5071100;28;20032;-34
2022/09/30 02:37:04;;;;;;;0.93;0.93;;;;;;;11.63;80.67;93162.81;5070608;28;20025;-34
2022/09/30 02:39:45;;;;;;;1.90;1.08;;;;;;;11.54;81.37;93168.22;5070636;28;20020;-34
2022/09/30 02:42:19;;;;;;;1.15;1.15;;;;;;;11.65;81.38;93179.56;5071724;28;20480;-34
2022/09/30 02:44:48;;;;;;;0.60;0.60;;;;;;;11.69;81.40;93171.66;5070841;28;20025;-34
2022/09/30 02:47:28;;;;;;;1.35;0.47;;;;;;;11.79;80.62;93180.06;5069990;28;20043;-34
2022/09/30 02:50:07;;;;;;;0.77;0.77;;;;;;;11.72;81.18;93178.81;5071661;28;20036;-34
2022/09/30 02:52:49;;;;;;;0.40;0.40;;;;;;;11.73;80.85;93185.09;5070744;28;20027;-34
2022/09/30 02:55:25;;;;;;;1.10;0.85;;;;;;;11.65;81.40;93184.38;5071585;28;20020;-34
2022/09/30 02:58:01;;;;;;;0.22;0.22;;;;;;;11.62;80.87;93180.72;5070321;28;20028;-34
2022/09/30 03:00:27;;;;;;;0.20;0.20;;;;;;;11.51;82.08;93172.09;5070244;28;20648;-34
2022/09/30 03:02:56;;;;;;;0.57;0.57;;;;;;;11.57;82.97;93169.84;5071615;28;20025;-34
2022/09/30 03:05:22;;;;;;;0.38;0.38;;;;;;;11.65;83.24;93170.56;5070404;28;20103;-34
2022/09/30 03:07:47;;;;;;;1.85;0.85;;;;;;;11.67;81.97;93171.50;5071486;28;20519;-34
2022/09/30 03:10:15;;;;;;;0.35;0.35;;;;;;;11.54;81.94;93165.47;5071294;28;20033;-34
2022/09/30 03:13:09;;;;;;;0.65;0.65;;;;;;;11.48;82.47;93176.00;5071409;28;20028;-34
2022/09/30 03:16:10;;;;;;;0.20;0.20;;;;;;;11.51;82.27;93175.59;5070353;28;20028;-34
2022/09/30 03:18:58;;;;;;;0.40;0.40;;;;;;;11.52;82.23;93179.81;5071372;28;20032;-34
2022/09/30 03:21:29;;;;;;;0.85;0.85;;;;;;;11.46;82.74;93176.53;5070865;28;20025;-34
2022/09/30 03:24:22;;;;;;;0.73;0.73;;;;;;;11.49;82.42;93183.72;5086373;28;20082;-34
2022/09/30 03:27:00;;;;;;;0.30;0.30;;;;;;;11.35;82.45;93188.03;5090808;28;20529;-34
2022/09/30 03:29:37;;;;;;;0.43;0.43;;;;;;;11.33;82.71;93190.63;5073425;28;20107;-34
2022/09/30 03:32:12;;;;;;;0.35;0.35;;;;;;;11.36;82.61;93186.75;5073049;28;20024;-34
2022/09/30 03:34:58;;;;;;;0.95;0.88;;;;;;;11.32;82.00;93192.66;5090917;28;20599;-34
2022/09/30 03:37:33;;;;;;;0.85;0.85;;;;;;;11.44;81.67;93192.97;5091290;28;20598;-34
2022/09/30 03:40:04;;;;;;;0.30;0.30;;;;;;;11.20;81.71;93194.34;5091231;28;20122;-34
2022/09/30 03:42:37;;;;;;;1.13;1.08;;;;;;;11.11;82.15;93197.00;5090779;28;20028;-34
2022/09/30 03:45:19;;;;;;;0.52;0.52;;;;;;;11.22;81.38;93210.38;5091214;28;20020;-34
2022/09/30 03:47:47;;;;;;;0.50;0.50;;;;;;;11.12;81.89;93201.22;5091066;28;20035;-34
2022/09/30 03:50:15;;;;;;;1.15;0.65;;;;;;;11.14;81.66;93195.84;5073112;28;20091;-34
2022/09/30 03:52:41;;;;;;;0.30;0.30;;;;;;;11.14;81.63;93201.38;5072704;28;20541;-34
2022/09/30 03:55:08;;;;;;;0.88;0.88;;;;;;;11.13;82.08;93197.88;5090980;28;20020;-34
2022/09/30 03:57:33;;;;;;;0.25;0.25;;;;;;;11.14;81.69;93193.84;5072901;28;20038;-34
2022/09/30 03:59:59;;;;;;;1.65;1.58;;;;;;;11.11;82.21;93197.00;5090620;28;20027;-34
2022/09/30 04:02:25;;;;;;;0.55;0.55;;;;;;;11.17;81.88;93197.50;5090871;28;20028;-34
2022/09/30 04:04:51;;;;;;;1.05;1.05;;;;;;;11.18;82.36;93202.47;5090784;28;20407;-34
2022/09/30 04:07:17;;;;;;;1.90;1.60;;;;;;;11.12;82.57;93201.22;5090516;28;20032;-34
2022/09/30 04:09:42;;;;;;;0.93;0.85;;;;;;;11.06;83.72;93203.44;5090469;28;20066;-34
2022/09/30 04:12:09;;;;;;;0.40;0.40;;;;;;;11.07;82.40;93191.81;5090480;28;20016;-34
2022/09/30 04:14:34;;;;;;;0.47;0.47;;;;;;;11.09;82.04;93196.78;5090814;28;20048;-34
2022/09/30 04:17:01;;;;;;;0.52;0.52;;;;;;;11.03;82.66;93212.84;5090696;28;20522;-34
2022/09/30 04:19:27;;;;;;;0.55;0.55;;;;;;;11.12;82.68;93215.03;5090374;28;20028;-34
2022/09/30 04:21:53;;;;;;;1.67;1.17;;;;;;;11.21;81.92;93223.47;5090199;28;20035;-34
2022/09/30 04:24:19;;;;;;;1.10;1.10;;;;;;;11.12;82.12;93228.84;5090198;28;20048;-34
2022/09/30 04:26:45;;;;;;;0.68;0.68;;;;;;;11.19;81.42;93211.50;5090360;28;20073;-34
2022/09/30 04:29:10;;;;;;;0.30;0.30;;;;;;;11.16;81.86;93218.88;5090377;28;20107;-34
2022/09/30 04:31:36;;;;;;;0.80;0.60;;;;;;;11.08;83.23;93228.47;5090656;28;20024;-34
2022/09/30 04:34:01;;;;;;;0.70;0.70;;;;;;;11.12;82.07;93224.06;5090506;28;20381;-34
2022/09/30 04:36:27;;;;;;;0.55;0.55;;;;;;;11.07;82.62;93236.03;5090503;28;20024;-34
2022/09/30 04:38:52;;;;;;;0.93;0.93;;;;;;;11.11;83.00;93224.63;5090228;28;20027;-34
2022/09/30 04:41:18;;;;;;;0.80;0.80;;;;;;;11.10;82.71;93234.19;5090122;28;20020;-34
2022/09/30 04:43:47;;;;;;;0.30;0.30;;;;;;;11.02;83.13;93239.72;5090199;28;20021;-34
2022/09/30 04:46:21;;;;;;;0.32;0.32;;;;;;;11.07;82.51;93236.03;5072282;28;20488;-34
2022/09/30 04:48:47;;;;;;;1.73;1.63;;;;;;;11.05;82.59;93249.66;5072527;28;20032;-34
2022/09/30 04:51:22;;;;;;;0.55;0.55;;;;;;;11.04;83.29;93255.75;5090192;28;20526;-34
2022/09/30 04:53:48;;;;;;;0.38;0.38;;;;;;;10.96;81.09;93216.38;5090053;28;20031;-34
2022/09/30 04:56:15;;;;;;;0.30;0.30;;;;;;;10.97;82.41;93242.69;5090289;28;20061;-34
2022/09/30 04:58:41;;;;;;;0.52;0.52;;;;;;;10.88;82.52;93227.44;5090280;28;20024;-34
2022/09/30 05:01:09;;;;;;;0.63;0.63;;;;;;;11.04;82.86;93239.19;5090071;28;20078;-34
2022/09/30 05:03:35;;;;;;;0.60;0.60;;;;;;;11.13;83.16;93244.13;5089973;28;20414;-34
2022/09/30 05:06:01;;;;;;;0.20;0.20;;;;;;;11.07;82.83;93260.16;5090232;28;20028;-34
2022/09/30 05:08:27;;;;;;;1.05;1.00;;;;;;;11.09;83.15;93266.59;5090230;28;20027;-34
2022/09/30 05:10:57;;;;;;;1.20;1.15;;;;;;;11.24;82.38;93274.13;5094035;28;20032;-34
2022/09/30 05:13:29;;;;;;;0.57;0.57;;;;;;;11.23;82.33;93275.41;5094000;28;20024;-34
2022/09/30 05:15:55;;;;;;;1.80;1.70;;;;;;;11.32;80.39;93261.03;5093982;28;20024;-34
2022/09/30 05:18:21;;;;;;;0.90;0.90;;;;;;;11.29;80.59;93275.94;5093901;28;20043;-34
2022/09/30 05:20:50;;;;;;;1.00;1.00;;;;;;;11.28;80.97;93283.50;5093513;28;20381;-34
2022/09/30 05:23:15;;;;;;;0.20;0.20;;;;;;;11.35;81.35;93293.78;5093365;28;20044;-34
2022/09/30 05:25:41;;;;;;;0.30;0.30;;;;;;;11.25;82.02;93297.69;5093062;28;20073;-34
2022/09/30 05:28:07;;;;;;;0.20;0.20;;;;;;;11.42;82.82;93308.88;5093652;28;20027;-34
2022/09/30 05:30:32;;;;;;;0.40;0.40;;;;;;;11.54;82.54;93304.44;5093687;28;20020;-34
2022/09/30 05:32:58;;;;;;;0.20;0.20;;;;;;;11.62;81.09;93296.09;5093684;28;20039;-34
2022/09/30 05:37:03;;;;;;;0.20;0.20;;;;;;;11.74;81.25;93284.09;5056906;27;2061808;-34
2022/09/30 05:39:28;;;;;;;0.20;0.20;;;;;;;11.72;80.82;93288.69;5108132;28;20092;-34
2022/09/30 05:41:56;;;;;;;0.40;0.40;;;;;;;11.75;81.41;93295.91;5108070;28;20035;-34
2022/09/30 05:44:21;;;;;;;0.30;0.30;;;;;;;11.80;81.61;93297.72;5089957;28;20031;-34
2022/09/30 05:46:46;;;;;;;0.63;0.63;;;;;;;11.80;80.83;93292.91;5108057;28;20020;-34
2022/09/30 05:49:12;;;;;;;0.95;0.93;;;;;;;11.87;80.87;93277.56;5107948;28;20028;-34
2022/09/30 05:51:37;;;;;;;0.65;0.65;;;;;;;12.01;80.21;93295.41;5107908;28;20028;-34
2022/09/30 05:54:03;;;;;;;0.98;0.98;;;;;;;12.08;80.12;93281.50;5107812;28;20027;-34
2022/09/30 05:56:28;;;;;;;2.05;1.77;;;;;;;12.34;80.08;93293.34;5107796;28;20032;-34
2022/09/30 05:58:54;;;;;;;0.85;0.80;;;;;;;12.46;79.47;93299.91;5107820;28;20046;-34
2022/09/30 06:01:19;;;;;;;1.35;1.35;;;;;;;12.65;78.41;93311.19;5107969;28;20489;-34
2022/09/30 06:03:45;;;;;;;0.30;0.30;;;;;;;12.65;78.65;93313.97;5107729;28;20035;-34
2022/09/30 06:06:12;;;;;;;0.57;0.57;;;;;;;12.69;79.00;93317.09;5107857;28;20028;-34
2022/09/30 06:08:38;;;;;;;0.80;0.80;;;;;;;12.84;79.05;93308.66;5107621;28;20055;-34
2022/09/30 06:11:10;;;;;;;0.30;0.30;;;;;;;13.05;78.38;93303.50;5107516;28;20106;-34
2022/09/30 06:13:36;;;;;;;1.08;1.08;;;;;;;13.25;78.72;93307.22;5107762;28;20023;-34
2022/09/30 06:16:02;;;;;;;0.85;0.85;;;;;;;13.58;77.95;93303.69;5107654;28;20038;-34
2022/09/30 06:18:28;;;;;;;0.45;0.45;;;;;;;14.04;76.67;93306.66;5107486;28;20427;-34
2022/09/30 06:20:57;;;;;;;0.40;0.40;;;;;;;14.55;75.40;93313.41;5107323;28;20024;-34
2022/09/30 06:23:23;;;;;;;0.20;0.20;;;;;;;15.10;73.58;93316.97;5107143;28;20032;-34
2022/09/30 06:25:50;;;;;;;0.90;0.90;;;;;;;15.50;71.99;93310.91;5107209;28;20026;-34
2022/09/30 06:28:15;;;;;;;2.75;2.13;;;;;;;16.34;69.16;93327.44;5107247;28;20031;-34
2022/09/30 06:30:43;;;;;;;0.40;0.40;;;;;;;17.17;66.90;93336.69;5107374;28;20035;-34
2022/09/30 06:33:08;;;;;;;1.10;1.10;;;;;;;17.94;63.28;93339.03;5107173;28;20059;-34
2022/09/30 06:35:34;;;;;;;2.28;1.65;;;;;;;18.83;61.14;93339.84;5107011;28;20082;-35
2022/09/30 06:37:59;;;;;;;3.00;2.08;;;;;;;19.76;58.13;93337.03;5107333;28;20035;-35
2022/09/30 06:40:25;;;;;;;4.30;3.90;;;;;;;20.57;55.67;93334.00;5107046;28;20023;-35
2022/09/30 06:42:50;;;;;;;1.40;1.27;;;;;;;20.84;54.60;93340.41;5106914;28;20031;-35
2022/09/30 06:45:17;;;;;;;0.20;0.20;;;;;;;21.28;53.75;93330.13;5107074;28;20024;-34
2022/09/30 06:47:45;;;;;;;1.00;0.70;;;;;;;22.07;52.26;93334.94;5097437;28;20028;-35
2022/09/30 06:50:10;;;;;;;2.88;1.08;;;;;;;22.25;50.14;93325.28;5093244;28;20024;-35
2022/09/30 06:52:36;;;;;;;0.52;0.52;;;;;;;22.21;51.68;93327.19;5093621;28;20107;-35
2022/09/30 06:55:01;;;;;;;1.55;0.57;;;;;;;23.01;50.53;93338.78;5093302;28;20040;-35
2022/09/30 06:57:27;;;;;;;0.28;0.28;;;;;;;23.54;49.88;93342.63;5093499;28;20028;-35
2022/09/30 06:59:53;;;;;;;1.23;1.23;;;;;;;23.81;49.11;93331.16;5093010;28;20019;-35
2022/09/30 07:02:19;;;;;;;1.00;1.00;;;;;;;24.48;47.00;93345.97;5093121;28;20028;-35
2022/09/30 07:04:44;;;;;;;1.17;1.08;;;;;;;25.18;45.75;93350.19;5092987;28;20039;-35
2022/09/30 07:07:10;;;;;;;0.10;0.10;;;;;;;25.65;44.97;93344.19;5093184;28;20028;-35
2022/09/30 07:09:36;;;;;;;0.50;0.50;;;;;;;26.23;43.39;93349.84;5093180;28;20035;-35
2022/09/30 07:12:01;;;;;;;0.25;0.25;;;;;;;26.64;42.29;93348.38;5093073;28;20055;-34
2022/09/30 07:14:27;;;;;;;0.50;0.43;;;;;;;27.11;41.73;93351.34;5093094;28;20023;-35
2022/09/30 07:16:52;;;;;;;0.63;0.63;;;;;;;27.05;41.06;93343.34;5092949;28;20020;-35
2022/09/30 07:19:21;;;;;;;6.03;0.95;;;;;;;27.28;41.04;93356.13;5092648;28;20028;-35
2022/09/30 07:21:47;;;;;;;;;;;;;;;27.88;40.34;93350.78;5093458;28;20468;-35
2022/09/30 07:24:13;;;;;;;0.60;0.60;;;;;;;28.43;39.24;93345.97;5092835;28;19908;-35
2022/09/30 07:26:39;;;;;;;3.42;1.33;;;;;;;29.02;37.50;93348.16;5092154;28;20028;-35
2022/09/30 07:29:06;;;;;;;0.13;0.13;;;;;;;29.56;36.45;93354.38;5092761;28;20035;-35
2022/09/30 07:31:33;;;;;;;0.80;0.77;;;;;;;30.02;35.91;93365.34;5092681;28;20024;-35
2022/09/30 07:33:59;;;;;;;0.32;0.32;;;;;;;30.70;34.44;93364.53;5092686;28;20030;-35
2022/09/30 07:36:28;;;;;;;0.75;0.73;;;;;;;31.10;33.58;93367.38;5092154;28;20397;-35
2022/09/30 07:38:54;;;;;;;16.50;0.95;;;;;;;31.57;32.72;93371.69;5092583;28;20051;-35
2022/09/30 07:41:25;;;;;;;0.20;0.20;;;;;;;32.18;32.65;93368.22;5092248;28;20036;-35
2022/09/30 07:43:52;;;;;;;0.22;0.22;;;;;;;32.57;31.84;93368.72;5092512;28;20384;-35
2022/09/30 07:46:22;;;;;;;0.28;0.28;;;;;;;33.02;32.21;93372.75;5092285;28;20024;-36
2022/09/30 07:48:51;;;;;;;0.08;0.08;;;;;;;33.25;31.25;93372.22;5092426;28;20479;-36
2022/09/30 07:51:20;;;;;;;;;;;;;;;33.70;29.19;93378.31;5092648;28;20086;-36
2022/09/30 07:53:51;;;;;;;0.00;0.00;;;;;;;34.25;26.21;93380.78;5092299;28;19915;-36
2022/09/30 07:56:17;;;;;;;0.65;0.65;;;;;;;34.59;27.90;93382.38;5091952;28;20112;-36
2022/09/30 07:58:43;;;;;;;0.20;0.20;;;;;;;34.71;27.27;93379.53;5090881;28;20032;-36
2022/09/30 08:01:09;;;;;;;0.47;0.47;;;;;;;35.25;25.69;93385.38;5092164;28;20036;-36
2022/09/30 08:03:40;;;;;;;0.22;0.15;;;;;;;35.73;24.93;93381.78;5091901;28;20479;-36
2022/09/30 08:06:07;;;;;;;0.32;0.32;;;;;;;35.49;24.23;93391.16;5091868;28;20035;-36
2022/09/30 08:08:33;;;;;;;0.00;0.00;;;;;;;34.96;24.99;93398.94;5092048;28;20080;-36
2022/09/30 08:11:00;;;;;;;0.03;0.03;;;;;;;34.32;23.56;93385.13;5091639;28;20103;-35
2022/09/30 08:13:25;;;;;;;0.32;0.32;;;;;;;35.04;23.89;93389.66;5091884;28;20496;-35
2022/09/30 08:15:51;;;;;;;0.10;0.10;;;;;;;35.62;23.20;93395.44;5073351;28;20069;-36
2022/09/30 08:18:16;;;;;;;0.13;0.13;;;;;;;34.85;23.26;93394.59;5091870;28;20024;-36
2022/09/30 08:20:42;;;;;;;0.17;0.17;;;;;;;33.84;24.24;93392.69;5091494;28;20504;-36
2022/09/30 08:23:07;;;;;;;0.00;0.00;;;;;;;32.53;25.91;93409.41;5073792;28;20488;-35
2022/09/30 08:25:33;;;;;;;0.43;0.32;;;;;;;31.75;27.17;93414.06;5091358;28;20515;-35
2022/09/30 08:27:58;;;;;;;0.10;0.10;;;;;;;32.12;26.58;93413.88;5091567;28;20032;-35
2022/09/30 08:30:24;;;;;;;0.15;0.15;;;;;;;32.25;26.65;93414.03;5091260;28;20411;-36
2022/09/30 08:32:49;;;;;;;0.75;0.40;;;;;;;32.23;26.21;93411.16;5091605;28;20052;-35
2022/09/30 08:35:15;;;;;;;0.08;0.08;;;;;;;32.84;24.87;93410.44;5090944;28;20028;-36
2022/09/30 08:37:41;;;;;;;0.52;0.52;;;;;;;32.89;24.69;93418.38;5091463;28;20103;-36
2022/09/30 08:40:17;;;;;;;0.28;0.28;;;;;;;32.77;24.83;93415.38;5091248;28;20043;-36
2022/09/30 08:43:19;;;;;;;7.97;0.40;;;;;;;33.30;24.47;93416.63;5073923;28;20024;-33
2022/09/30 08:45:54;;;;;;;0.20;0.20;;;;;;;33.13;24.71;93420.06;5091141;28;20020;-33
2022/09/30 08:48:31;;;;;;;0.10;0.10;;;;;;;33.84;25.38;93424.22;5091043;28;20039;-33
2022/09/30 08:51:06;;;;;;;0.08;0.08;;;;;;;33.85;24.47;93422.81;5091369;28;20028;-33
2022/09/30 08:53:35;;;;;;;0.43;0.32;;;;;;;33.66;23.50;93418.38;5073283;28;20050;-33
2022/09/30 08:56:02;;;;;;;0.13;0.13;;;;;;;34.04;23.81;93421.50;5091046;28;20023;-33
2022/09/30 08:58:34;;;;;;;0.10;0.10;;;;;;;34.28;23.81;93430.94;5073152;28;20032;-33
2022/09/30 09:01:29;;;;;;;0.00;0.00;;;;;;;34.77;21.95;93429.03;5091125;28;20111;-34
2022/09/30 09:03:56;;;;;;;0.20;0.20;;;;;;;35.29;22.24;93434.16;5090804;28;20109;-33
2022/09/30 09:06:59;;;;;;;0.03;0.03;;;;;;;35.65;23.00;93434.19;5072664;28;20060;-34
2022/09/30 09:09:51;;;;;;;0.30;0.20;;;;;;;36.11;22.52;93441.34;5090511;28;20039;-34
2022/09/30 09:12:26;;;;;;;0.30;0.30;;;;;;;36.34;22.53;93439.88;5090643;28;20465;-34
2022/09/30 09:15:24;;;;;;;0.20;0.20;;;;;;;36.62;21.22;93444.84;5090789;28;20032;-34
2022/09/30 09:18:05;;;;;;;;;;;;;;;36.39;21.54;93444.88;5048136;28;20047;-34
2022/09/30 09:20:33;;;;;;;0.00;0.00;;;;;;;36.35;21.08;93444.19;5072878;28;19915;-33
2022/09/30 09:23:01;;;;;;;0.00;0.00;;;;;;;36.28;20.37;93440.59;5072894;28;20024;-33
2022/09/30 09:25:27;;;;;;;0.20;0.20;;;;;;;35.89;21.00;93459.31;5090416;28;20019;-34
2022/09/30 09:28:08;;;;;;;1.35;0.60;;;;;;;36.37;20.86;93455.66;5090286;28;20468;-33
2022/09/30 09:30:44;;;;;;;3.53;0.80;;;;;;;36.00;21.77;93460.06;5072485;28;20466;-33
2022/09/30 09:33:21;;;;;;;0.00;0.00;;;;;;;36.30;20.45;93460.03;5072765;28;20020;-34
2022/09/30 09:36:09;;;;;;;0.00;0.00;;;;;;;36.31;21.98;93459.28;5072607;28;20064;-33
2022/09/30 09:38:55;;;;;;;;;;;;;;;36.06;22.19;93452.16;5090919;28;20046;-33
2022/09/30 09:41:32;;;;;;;0.25;0.15;;;;;;;35.97;21.22;93456.50;5089681;28;20414;-33
2022/09/30 09:43:59;;;;;;;0.00;0.00;;;;;;;35.65;21.30;93453.59;5090318;28;20031;-33
2022/09/30 09:46:43;;;;;;;0.10;0.10;;;;;;;34.93;22.45;93466.34;5090483;28;20423;-33
2022/09/30 09:49:20;;;;;;;0.00;0.00;;;;;;;34.98;22.26;93456.31;5090265;28;20419;-33
2022/09/30 09:51:53;;;;;;;0.10;0.10;;;;;;;35.71;21.49;93451.44;5090277;28;20034;-33
2022/09/30 09:54:19;;;;;;;0.00;0.00;;;;;;;35.36;21.80;93449.97;5072212;28;20032;-33
2022/09/30 09:56:45;;;;;;;0.00;0.00;;;;;;;35.91;22.32;93456.44;5072100;28;20487;-34
2022/09/30 09:59:17;;;;;;;0.00;0.00;;;;;;;36.96;20.42;93456.94;5090192;28;20064;-34
2022/09/30 10:01:44;;;;;;;0.00;0.00;;;;;;;36.88;21.25;93471.34;5090310;28;20024;-34
2022/09/30 10:04:14;;;;;;;0.00;0.00;;;;;;;37.50;20.28;93472.47;5090143;28;20060;-34
2022/09/30 10:06:54;;;;;;;0.00;0.00;;;;;;;37.86;20.00;93472.94;5090213;28;20027;-34
2022/09/30 10:09:36;;;;;;;0.13;0.13;;;;;;;38.29;18.68;93467.50;5090065;28;20069;-34
2022/09/30 10:12:05;;;;;;;0.00;0.00;;;;;;;37.71;19.50;93474.47;5090300;28;20407;-34
2022/09/30 10:14:32;;;;;;;1.08;0.22;;;;;;;37.70;19.25;93473.06;5089978;28;20695;-34
2022/09/30 10:16:59;;;;;;;0.00;0.00;;;;;;;37.35;19.97;93468.25;5072009;28;20040;-34
2022/09/30 10:19:27;;;;;;;0.00;0.00;;;;;;;37.25;18.57;93452.44;5071984;28;20035;-34
2022/09/30 10:22:13;;;;;;;0.00;0.00;;;;;;;37.22;19.38;93471.19;5072504;28;20032;-33
2022/09/30 10:24:39;;;;;;;0.00;0.00;;;;;;;37.31;19.83;93462.50;5093618;28;20040;-34
2022/09/30 10:27:27;;;;;;;0.30;0.25;;;;;;;37.15;20.61;93461.16;5093584;28;20384;-33
2022/09/30 10:29:52;;;;;;;0.00;0.00;;;;;;;36.77;19.44;93458.44;5093874;28;20480;-34
2022/09/30 10:32:18;;;;;;;0.20;0.13;;;;;;;36.48;20.54;93448.47;5093658;28;20074;-33
2022/09/30 10:34:44;;;;;;;0.10;0.10;;;;;;;36.90;20.15;93439.72;5093803;28;20020;-33
2022/09/30 10:37:22;;;;;;;0.00;0.00;;;;;;;36.66;19.09;93439.06;5093342;28;20409;-33
2022/09/30 10:39:56;;;;;;;0.00;0.00;;;;;;;36.66;20.61;93451.28;5075613;28;20158;-33
2022/09/30 10:42:24;;;;;;;0.15;0.05;;;;;;;36.74;19.91;93439.03;5075700;28;20035;-33
2022/09/30 10:45:01;;;;;;;0.00;0.00;;;;;;;35.60;21.68;93444.28;5075725;28;20457;-33
2022/09/30 10:47:26;;;;;;;0.10;0.10;;;;;;;35.69;21.98;93437.06;5075734;28;20161;-33
2022/09/30 10:50:04;;;;;;;0.25;0.25;;;;;;;35.75;21.52;93442.09;5075176;28;20491;-33
2022/09/30 10:52:38;;;;;;;0.00;0.00;;;;;;;35.69;21.02;93448.56;5093687;28;20035;-33
2022/09/30 10:55:07;;;;;;;0.17;0.17;;;;;;;35.62;21.28;93440.69;5075046;28;20024;-33
2022/09/30 10:57:34;;;;;;;0.30;0.30;;;;;;;35.41;21.64;93442.78;5093086;28;20028;-33
2022/09/30 11:00:09;;;;;;;0.30;0.30;;;;;;;35.08;21.47;93438.44;5093522;28;20043;-33
2022/09/30 11:02:37;;;;;;;0.00;0.00;;;;;;;35.62;22.17;93446.41;5074993;28;20064;-33
2022/09/30 11:05:09;;;;;;;0.15;0.13;;;;;;;35.84;21.39;93454.31;5074829;28;20054;-33
2022/09/30 11:07:53;;;;;;;0.13;0.13;;;;;;;34.65;22.30;93451.94;5093208;28;20110;-33
2022/09/30 11:10:49;;;;;;;0.47;0.47;;;;;;;34.63;22.75;93451.19;5093035;28;20028;-33
2022/09/30 11:13:33;;;;;;;0.15;0.15;;;;;;;34.93;22.06;93451.31;5074828;28;20032;-33
2022/09/30 11:16:13;;;;;;;0.40;0.40;;;;;;;35.00;22.32;93453.50;5092748;28;20024;-33
2022/09/30 11:18:53;;;;;;;0.00;0.00;;;;;;;34.95;22.58;93457.03;5075261;28;20031;-33
2022/09/30 11:21:45;;;;;;;0.05;0.05;;;;;;;35.05;21.90;93454.94;5074729;28;20051;-33
2022/09/30 11:24:13;;;;;;;0.00;0.00;;;;;;;35.15;21.91;93462.84;5092685;28;20071;-33
2022/09/30 11:27:03;;;;;;;0.00;0.00;;;;;;;34.24;21.39;93459.56;5092567;28;20043;-33
2022/09/30 11:29:43;;;;;;;0.10;0.10;;;;;;;34.06;21.80;93458.75;5092428;28;20035;-34
2022/09/30 11:32:30;;;;;;;0.50;0.50;;;;;;;34.14;22.19;93458.81;5092858;28;20023;-35
2022/09/30 11:34:58;;;;;;;0.38;0.30;;;;;;;33.80;22.73;93465.00;5092604;28;20020;-35
2022/09/30 11:37:31;;;;;;;;;;;;;;;33.70;22.71;93462.06;5093157;28;20040;-35
2022/09/30 11:39:59;;;;;;;0.38;0.38;;;;;;;33.90;22.93;93459.34;5092267;28;20452;-35
2022/09/30 11:42:30;;;;;;;0.10;0.10;;;;;;;33.73;22.33;93457.78;5092330;28;20035;-35
2022/09/30 11:45:22;;;;;;;0.05;0.05;;;;;;;33.40;22.86;93456.78;5092292;28;20085;-35
2022/09/30 11:47:56;;;;;;;0.10;0.10;;;;;;;33.34;24.23;93456.72;5074181;28;20031;-35
2022/09/30 11:50:56;;;;;;;0.32;0.32;;;;;;;33.01;24.11;93460.00;5092266;28;20031;-35
2022/09/30 11:53:27;;;;;;;0.20;0.20;;;;;;;32.99;23.55;93465.66;5092351;28;20020;-35
2022/09/30 11:56:00;;;;;;;0.40;0.40;;;;;;;32.41;24.14;93462.81;5091972;28;20538;-35
2022/09/30 11:58:55;;;;;;;0.43;0.43;;;;;;;32.45;23.48;93463.59;5092029;28;20496;-35